Time;durP1;ratioP1;P1;durP2;ratioP2;P2;SDS_P1;SDS_P2;PMS_P1;PMS_P2;Temp;Humidity;BMP_temperature;BMP_pressure;BME280_temperature;BME280_humidity;BME280_pressure;Samples;Min_cycle;Max_cycle;Signal;HPM_P1;HPM_P2
2021/12/10 00:00:22;;;;;;;0.70;0.70;;;3.80;99.90;;;;;;5033574;28;20181;-69
2021/12/10 00:02:49;;;;;;;0.47;0.47;;;3.80;99.90;;;;;;5033716;28;20196;-69
2021/12/10 00:05:34;;;;;;;0.00;0.00;;;3.80;99.90;;;;;;5032053;28;20185;-69
2021/12/10 00:08:00;;;;;;;1.20;1.20;;;3.70;99.90;;;;;;5033325;28;20235;-69
2021/12/10 00:10:33;;;;;;;0.60;0.60;;;3.70;99.90;;;;;;5033157;28;20201;-69
2021/12/10 00:13:00;;;;;;;0.63;0.63;;;3.60;99.90;;;;;;5032225;28;20178;-70
2021/12/10 00:15:29;;;;;;;0.10;0.10;;;3.50;99.90;;;;;;5033277;28;20184;-70
2021/12/10 00:17:57;;;;;;;0.07;0.07;;;3.40;99.90;;;;;;5033079;28;20644;-69
2021/12/10 00:20:25;;;;;;;0.73;0.73;;;3.30;99.90;;;;;;5032760;28;20240;-70
2021/12/10 00:22:58;;;;;;;0.50;0.50;;;3.30;99.90;;;;;;5033227;28;20184;-70
2021/12/10 00:25:35;;;;;;;1.70;0.80;;;3.30;99.90;;;;;;5031958;28;20241;-70
2021/12/10 00:28:14;;;;;;;1.60;1.53;;;3.20;99.90;;;;;;5031473;28;20175;-70
2021/12/10 00:31:14;;;;;;;1.40;0.83;;;3.20;99.90;;;;;;5033095;28;20418;-70
2021/12/10 00:33:47;;;;;;;0.10;0.10;;;3.10;99.90;;;;;;5033050;28;20175;-70
2021/12/10 00:36:13;;;;;;;0.20;0.20;;;3.10;99.90;;;;;;5032848;28;20180;-70
2021/12/10 00:38:40;;;;;;;0.90;0.90;;;3.10;99.90;;;;;;5032444;28;20218;-70
2021/12/10 00:41:07;;;;;;;0.40;0.40;;;3.10;99.90;;;;;;5033998;28;20722;-70
2021/12/10 00:43:33;;;;;;;0.70;0.70;;;3.10;99.90;;;;;;5032685;28;20178;-70
2021/12/10 00:45:59;;;;;;;0.07;0.07;;;3.10;99.90;;;;;;5032331;28;20187;-70
2021/12/10 00:48:25;;;;;;;0.20;0.20;;;3.20;99.90;;;;;;5032450;28;20204;-69
2021/12/10 00:50:55;;;;;;;0.43;0.43;;;3.20;99.90;;;;;;5032584;28;20196;-70
2021/12/10 00:53:21;;;;;;;0.10;0.10;;;3.20;99.90;;;;;;5032610;28;20180;-69
2021/12/10 00:55:47;;;;;;;0.30;0.30;;;3.30;99.90;;;;;;5032336;28;20179;-70
2021/12/10 00:58:14;;;;;;;0.10;0.10;;;3.30;99.90;;;;;;5032457;28;20686;-70
2021/12/10 01:00:50;;;;;;;0.00;0.00;;;3.40;99.90;;;;;;5032382;28;20612;-70
2021/12/10 01:03:19;;;;;;;0.20;0.20;;;3.30;99.90;;;;;;5030894;28;20194;-70
2021/12/10 01:05:49;;;;;;;5.27;2.17;;;3.40;99.90;;;;;;5032278;28;20187;-68
2021/12/10 01:08:15;;;;;;;0.47;0.47;;;3.30;99.90;;;;;;5032204;28;20231;-69
2021/12/10 01:10:50;;;;;;;3.03;0.87;;;3.30;99.90;;;;;;5032219;28;20192;-69
2021/12/10 01:13:19;;;;;;;0.10;0.10;;;3.30;99.90;;;;;;5032406;28;20182;-69
2021/12/10 01:16:11;;;;;;;0.63;0.63;;;3.30;99.90;;;;;;5030452;28;20184;-69
2021/12/10 01:27:14;;;;;;;0.63;0.63;;;3.20;99.90;;;;;;5031766;28;20186;-70
2021/12/10 01:29:45;;;;;;;0.50;0.50;;;3.20;99.90;;;;;;5031880;28;20591;-69
2021/12/10 01:32:16;;;;;;;0.47;0.43;;;3.30;99.90;;;;;;5031119;28;20176;-69
2021/12/10 01:34:42;;;;;;;0.00;0.00;;;3.30;99.90;;;;;;5031845;28;20595;-70
2021/12/10 01:37:09;;;;;;;0.93;0.93;;;3.40;99.90;;;;;;5031459;28;20267;-70
2021/12/10 01:39:37;;;;;;;0.47;0.43;;;3.30;99.90;;;;;;5030290;28;20219;-70
2021/12/10 01:44:51;;;;;;;1.40;1.33;;;3.40;99.90;;;;;;5031288;28;20183;-69
2021/12/10 01:47:22;;;;;;;1.67;1.57;;;3.40;99.90;;;;;;5031450;28;20234;-69
2021/12/10 01:49:48;;;;;;;1.13;1.13;;;3.50;99.90;;;;;;5031533;28;20289;-70
2021/12/10 01:52:16;;;;;;;1.60;1.10;;;3.60;99.90;;;;;;5031626;28;20612;-69
2021/12/10 01:54:48;;;;;;;0.53;0.53;;;3.60;99.90;;;;;;5031684;28;20170;-70
2021/12/10 01:57:16;;;;;;;0.60;0.60;;;3.60;99.90;;;;;;5031263;28;20185;-70
2021/12/10 01:59:44;;;;;;;4.37;1.70;;;3.50;99.90;;;;;;5031559;28;20208;-70
2021/12/10 02:02:14;;;;;;;0.80;0.80;;;3.50;99.90;;;;;;5031368;28;20188;-70
2021/12/10 02:04:41;;;;;;;0.87;0.87;;;3.40;99.90;;;;;;5017409;28;20178;-70
2021/12/10 02:07:10;;;;;;;0.10;0.10;;;3.50;99.90;;;;;;5031169;28;20725;-69
2021/12/10 02:09:36;;;;;;;0.10;0.10;;;3.40;99.90;;;;;;5030892;28;20193;-69
2021/12/10 02:12:03;;;;;;;0.93;0.93;;;3.50;99.90;;;;;;5031258;28;20184;-69
2021/12/10 02:14:28;;;;;;;2.83;1.03;;;3.50;99.90;;;;;;5031255;28;20179;-69
2021/12/10 02:16:59;;;;;;;0.63;0.63;;;3.50;99.90;;;;;;5030966;28;20651;-71
2021/12/10 02:19:25;;;;;;;0.57;0.50;;;3.50;99.90;;;;;;5030940;28;20271;-70
2021/12/10 02:21:52;;;;;;;3.73;2.33;;;3.30;99.90;;;;;;5031005;28;20252;-70
2021/12/10 02:24:18;;;;;;;0.43;0.43;;;3.10;99.90;;;;;;5031253;28;20211;-70
2021/12/10 02:26:57;;;;;;;0.10;0.10;;;2.90;99.90;;;;;;5030906;28;20207;-70
2021/12/10 02:29:27;;;;;;;0.43;0.43;;;2.80;99.90;;;;;;5031044;28;20728;-70
2021/12/10 02:31:54;;;;;;;0.77;0.77;;;2.60;99.90;;;;;;5031146;28;20206;-69
2021/12/10 02:34:20;;;;;;;0.00;0.00;;;2.60;99.90;;;;;;5029604;28;20269;-69
2021/12/10 02:36:46;;;;;;;0.20;0.20;;;2.70;99.90;;;;;;5029387;28;20265;-69
2021/12/10 02:39:15;;;;;;;0.50;0.50;;;2.60;99.90;;;;;;5031019;28;20692;-69
2021/12/10 02:41:41;;;;;;;1.03;1.03;;;2.60;99.90;;;;;;5030898;28;20181;-69
2021/12/10 02:44:13;;;;;;;0.10;0.10;;;2.60;99.90;;;;;;5034762;28;20181;-69
2021/12/10 02:46:39;;;;;;;0.60;0.60;;;2.60;99.90;;;;;;5033954;28;20185;-70
2021/12/10 02:49:08;;;;;;;0.00;0.00;;;2.70;99.90;;;;;;5034922;28;20666;-69
2021/12/10 02:51:35;;;;;;;1.40;1.40;;;2.70;99.90;;;;;;5034729;28;20256;-68
2021/12/10 02:54:03;;;;;;;0.00;0.00;;;2.80;99.90;;;;;;5035003;28;20179;-70
2021/12/10 02:56:28;;;;;;;0.30;0.30;;;2.90;99.90;;;;;;5034445;28;20262;-69
2021/12/10 02:58:59;;;;;;;0.03;0.03;;;2.90;99.90;;;;;;5034602;28;20225;-69
2021/12/10 03:01:51;;;;;;;0.50;0.50;;;3.00;99.90;;;;;;5034706;28;20183;-69
2021/12/10 03:04:17;;;;;;;0.50;0.50;;;3.00;99.90;;;;;;5034788;28;20191;-69
2021/12/10 03:06:52;;;;;;;0.13;0.13;;;2.90;99.90;;;;;;5032915;28;20646;-68
2021/12/10 03:09:20;;;;;;;0.00;0.00;;;3.00;99.90;;;;;;5034464;28;20238;-69
2021/12/10 03:11:48;;;;;;;2.63;2.30;;;3.00;99.90;;;;;;5033064;28;20279;-69
2021/12/10 03:14:20;;;;;;;0.30;0.30;;;2.80;99.90;;;;;;5034540;28;20184;-69
2021/12/10 03:16:48;;;;;;;0.73;0.73;;;2.80;99.90;;;;;;5033985;28;20187;-69
2021/12/10 03:19:14;;;;;;;0.03;0.03;;;2.80;99.90;;;;;;5034365;28;20192;-69
2021/12/10 03:21:44;;;;;;;0.00;0.00;;;2.80;99.90;;;;;;5034506;28;20175;-70
2021/12/10 03:24:14;;;;;;;0.20;0.20;;;2.80;99.90;;;;;;5034076;28;20200;-70
2021/12/10 03:26:40;;;;;;;0.10;0.10;;;2.80;99.90;;;;;;5033962;28;20308;-70
2021/12/10 03:29:06;;;;;;;6.03;0.70;;;2.80;99.90;;;;;;5034131;28;20289;-70
2021/12/10 03:31:32;;;;;;;0.00;0.00;;;2.90;99.90;;;;;;5033989;28;20744;-70
2021/12/10 03:33:58;;;;;;;0.03;0.03;;;2.90;99.90;;;;;;5034132;28;20201;-70
2021/12/10 03:36:25;;;;;;;6.03;0.83;;;3.00;99.90;;;;;;5032286;28;20183;-70
2021/12/10 03:38:52;;;;;;;0.10;0.10;;;2.90;99.90;;;;;;5034754;28;20234;-70
2021/12/10 03:41:19;;;;;;;0.00;0.00;;;2.90;99.90;;;;;;5035158;28;20545;-69
2021/12/10 03:43:47;;;;;;;0.10;0.10;;;3.00;99.90;;;;;;5034084;28;20277;-69
2021/12/10 03:46:15;;;;;;;0.00;0.00;;;3.10;99.90;;;;;;5033209;28;20523;-69
2021/12/10 03:48:43;;;;;;;8.23;0.60;;;3.10;99.90;;;;;;5033660;28;20577;-69
2021/12/10 03:51:16;;;;;;;1.03;1.03;;;3.20;99.90;;;;;;5032883;28;20207;-69
2021/12/10 03:53:42;;;;;;;0.00;0.00;;;3.30;99.90;;;;;;5033387;28;20523;-69
2021/12/10 03:56:12;;;;;;;0.20;0.20;;;3.30;99.90;;;;;;5033293;28;20194;-69
2021/12/10 03:58:38;;;;;;;0.10;0.10;;;3.40;99.90;;;;;;5032298;28;20206;-69
2021/12/10 04:01:06;;;;;;;0.00;0.00;;;3.30;99.90;;;;;;5033496;28;20200;-69
2021/12/10 04:03:33;;;;;;;0.10;0.10;;;3.40;99.90;;;;;;5033662;28;20244;-68
2021/12/10 04:05:58;;;;;;;0.40;0.40;;;3.40;99.90;;;;;;5031783;28;20194;-69
2021/12/10 04:08:24;;;;;;;0.20;0.20;;;3.40;99.90;;;;;;5032541;28;20208;-70
2021/12/10 04:10:52;;;;;;;0.57;0.57;;;3.40;99.90;;;;;;5033348;28;20227;-69
2021/12/10 04:13:18;;;;;;;0.13;0.13;;;3.50;99.90;;;;;;5033567;28;20639;-69
2021/12/10 04:15:44;;;;;;;0.10;0.10;;;3.40;99.90;;;;;;5030541;28;20180;-70
2021/12/10 04:18:10;;;;;;;0.00;0.00;;;3.40;99.90;;;;;;5031528;28;20691;-69
2021/12/10 04:20:37;;;;;;;0.20;0.20;;;3.40;99.90;;;;;;5033367;28;20270;-69
2021/12/10 04:23:05;;;;;;;0.83;0.83;;;3.40;99.90;;;;;;5033276;28;20268;-69
2021/12/10 04:25:31;;;;;;;0.23;0.23;;;3.50;99.90;;;;;;5033112;28;20188;-69
2021/12/10 04:28:00;;;;;;;0.30;0.30;;;3.50;99.90;;;;;;5030886;28;20244;-69
2021/12/10 04:30:29;;;;;;;0.00;0.00;;;3.40;99.90;;;;;;5033038;28;20215;-69
2021/12/10 04:32:54;;;;;;;0.10;0.10;;;3.40;99.90;;;;;;5032146;28;20270;-69
2021/12/10 04:35:20;;;;;;;0.17;0.17;;;3.50;99.90;;;;;;5033157;28;20322;-69
2021/12/10 04:37:48;;;;;;;0.20;0.20;;;3.40;99.90;;;;;;5032722;28;20643;-70
2021/12/10 04:40:17;;;;;;;0.17;0.17;;;3.40;99.90;;;;;;5032921;28;20192;-70
2021/12/10 04:42:43;;;;;;;5.30;1.93;;;3.30;99.90;;;;;;5032890;28;20174;-69
2021/12/10 04:45:10;;;;;;;0.73;0.73;;;3.30;99.90;;;;;;5032423;28;20268;-69
2021/12/10 04:47:35;;;;;;;0.90;0.80;;;3.30;99.90;;;;;;5031342;28;20261;-70
2021/12/10 04:50:03;;;;;;;0.07;0.07;;;3.20;99.90;;;;;;5031367;28;20699;-69
2021/12/10 04:52:29;;;;;;;1.93;1.83;;;3.20;99.90;;;;;;5032516;28;20183;-70
2021/12/10 04:54:55;;;;;;;2.07;0.67;;;3.20;99.90;;;;;;5032649;28;20600;-70
2021/12/10 04:57:20;;;;;;;0.10;0.10;;;3.20;99.90;;;;;;5032502;28;20183;-69
2021/12/10 04:59:47;;;;;;;0.40;0.40;;;3.10;99.90;;;;;;5032528;28;20194;-69
2021/12/10 05:02:15;;;;;;;0.00;0.00;;;3.20;99.90;;;;;;5032550;28;20187;-69
2021/12/10 05:04:43;;;;;;;0.30;0.30;;;3.20;99.90;;;;;;5032528;28;20599;-69
2021/12/10 05:07:11;;;;;;;0.00;0.00;;;3.20;99.90;;;;;;5032420;28;20538;-69
2021/12/10 05:09:37;;;;;;;0.93;0.93;;;3.20;99.90;;;;;;5031716;28;20198;-69
2021/12/10 05:12:03;;;;;;;0.57;0.57;;;3.10;99.90;;;;;;5032551;28;20797;-69
2021/12/10 05:14:30;;;;;;;0.20;0.20;;;3.00;99.90;;;;;;5032285;28;20663;-70
2021/12/10 05:17:00;;;;;;;15.10;1.33;;;3.00;99.90;;;;;;5032048;28;20188;-69
2021/12/10 05:19:28;;;;;;;0.10;0.10;;;3.00;99.90;;;;;;5032674;28;20196;-69
2021/12/10 05:21:54;;;;;;;0.10;0.10;;;3.00;99.90;;;;;;5032779;28;20174;-69
2021/12/10 05:24:21;;;;;;;0.00;0.00;;;3.00;99.90;;;;;;5033342;28;20655;-69
2021/12/10 05:26:47;;;;;;;0.10;0.10;;;3.00;99.90;;;;;;5030693;28;20542;-69
2021/12/10 05:29:13;;;;;;;23.87;2.10;;;3.00;99.90;;;;;;5032956;28;20636;-69
2021/12/10 05:31:43;;;;;;;0.23;0.23;;;3.00;99.90;;;;;;5033449;28;20243;-70
2021/12/10 05:34:09;;;;;;;0.63;0.63;;;3.00;99.90;;;;;;5032780;28;20180;-68
2021/12/10 05:36:34;;;;;;;0.37;0.37;;;3.00;99.90;;;;;;5032174;28;20570;-69
2021/12/10 05:39:00;;;;;;;1.13;1.07;;;2.90;99.90;;;;;;5032614;28;20710;-70
2021/12/10 05:41:26;;;;;;;0.30;0.30;;;2.70;99.90;;;;;;5031058;28;20265;-70
2021/12/10 05:43:51;;;;;;;0.00;0.00;;;2.60;99.90;;;;;;5032738;28;20657;-70
2021/12/10 05:46:18;;;;;;;0.40;0.40;;;2.50;99.90;;;;;;5031637;28;20187;-70
2021/12/10 05:48:45;;;;;;;0.47;0.47;;;2.60;99.90;;;;;;5032094;28;20201;-70
2021/12/10 05:51:11;;;;;;;0.30;0.30;;;2.60;99.90;;;;;;5032634;28;20218;-70
2021/12/10 05:53:37;;;;;;;4.13;0.90;;;2.60;99.90;;;;;;5030938;28;20184;-70
2021/12/10 05:56:03;;;;;;;3.20;2.43;;;2.50;99.90;;;;;;5032465;28;20235;-69
2021/12/10 05:58:29;;;;;;;0.40;0.40;;;2.50;99.90;;;;;;5030426;28;20198;-69
2021/12/10 06:01:04;;;;;;;1.43;1.43;;;2.50;99.90;;;;;;5031526;28;20880;-71
2021/12/10 06:03:35;;;;;;;7.53;1.03;;;2.50;99.90;;;;;;5031559;28;20566;-71
2021/12/10 06:06:01;;;;;;;0.30;0.30;;;2.50;99.90;;;;;;5031103;28;20190;-69
2021/12/10 06:08:28;;;;;;;0.47;0.47;;;2.50;99.90;;;;;;5030573;28;20201;-70
2021/12/10 06:10:56;;;;;;;0.47;0.47;;;2.50;99.90;;;;;;5030795;28;20716;-70
2021/12/10 06:13:22;;;;;;;1.17;0.97;;;2.60;99.90;;;;;;5041069;28;20672;-69
2021/12/10 06:15:48;;;;;;;1.37;1.27;;;2.60;99.90;;;;;;5050956;28;20193;-69
2021/12/10 06:18:14;;;;;;;0.13;0.10;;;2.60;99.90;;;;;;5050987;28;20249;-69
2021/12/10 06:20:46;;;;;;;0.80;0.23;;;2.70;99.90;;;;;;5051319;28;20182;-70
2021/12/10 06:23:12;;;;;;;0.13;0.13;;;2.80;99.90;;;;;;5051465;28;20184;-69
2021/12/10 06:25:39;;;;;;;8.30;1.43;;;2.90;99.90;;;;;;5050641;28;20189;-69
2021/12/10 06:28:06;;;;;;;1.77;1.70;;;2.90;99.90;;;;;;5051130;28;20557;-70
2021/12/10 06:30:38;;;;;;;0.17;0.17;;;2.90;99.90;;;;;;5050746;28;20205;-69
2021/12/10 06:33:08;;;;;;;0.40;0.40;;;2.90;99.90;;;;;;5050036;28;20553;-70
2021/12/10 06:35:36;;;;;;;0.53;0.53;;;2.80;99.90;;;;;;5043383;28;20170;-70
2021/12/10 06:38:01;;;;;;;0.00;0.00;;;2.70;99.90;;;;;;5029118;28;20554;-70
2021/12/10 06:40:30;;;;;;;0.30;0.30;;;2.60;99.90;;;;;;5032139;28;20199;-69
2021/12/10 06:42:56;;;;;;;0.03;0.03;;;2.60;99.90;;;;;;5031226;28;20190;-69
2021/12/10 06:45:25;;;;;;;0.40;0.40;;;2.60;99.90;;;;;;5029945;28;20189;-69
2021/12/10 06:47:55;;;;;;;0.10;0.10;;;2.50;99.90;;;;;;5030710;28;20531;-69
2021/12/10 06:50:22;;;;;;;2.20;1.90;;;2.50;99.90;;;;;;5030918;28;20296;-69
2021/12/10 06:52:49;;;;;;;0.10;0.10;;;2.40;99.90;;;;;;5029712;28;20193;-69
2021/12/10 06:55:16;;;;;;;0.57;0.57;;;2.40;99.90;;;;;;5031102;28;20188;-70
2021/12/10 06:57:42;;;;;;;0.10;0.10;;;2.40;99.90;;;;;;5030289;28;20187;-70
2021/12/10 07:00:15;;;;;;;1.27;0.95;;;2.40;99.90;;;;;;5030284;28;20477;-70
2021/12/10 07:02:41;;;;;;;0.03;0.03;;;2.40;99.90;;;;;;5029714;28;20237;-69
2021/12/10 07:05:07;;;;;;;0.10;0.10;;;2.40;99.90;;;;;;5031004;28;20182;-69
2021/12/10 07:07:33;;;;;;;2.67;1.13;;;2.40;99.90;;;;;;5030593;28;20255;-71
2021/12/10 07:10:00;;;;;;;0.00;0.00;;;2.50;99.90;;;;;;5030503;28;20196;-70
2021/12/10 07:12:26;;;;;;;0.30;0.20;;;2.40;99.90;;;;;;5029508;28;20669;-70
2021/12/10 07:14:52;;;;;;;0.00;0.00;;;2.40;99.90;;;;;;5030975;28;20174;-71
2021/12/10 07:17:17;;;;;;;3.83;0.73;;;2.30;99.90;;;;;;5030301;28;20178;-71
2021/12/10 07:19:44;;;;;;;0.50;0.50;;;2.30;99.90;;;;;;5030643;28;20769;-71
2021/12/10 07:22:11;;;;;;;0.10;0.10;;;2.40;99.90;;;;;;5031246;28;20178;-70
2021/12/10 07:24:37;;;;;;;0.10;0.10;;;2.40;99.90;;;;;;5030613;28;20586;-70
2021/12/10 07:27:03;;;;;;;0.37;0.37;;;2.50;99.90;;;;;;5029155;28;20701;-70
2021/12/10 07:29:29;;;;;;;0.50;0.50;;;2.60;99.90;;;;;;5031558;28;20201;-69
2021/12/10 07:31:54;;;;;;;12.40;1.17;;;2.70;99.90;;;;;;5032877;28;20202;-69
2021/12/10 07:34:20;;;;;;;1.87;0.83;;;2.80;99.90;;;;;;5032958;28;20208;-69
2021/12/10 07:36:45;;;;;;;0.47;0.47;;;2.80;99.90;;;;;;5033826;28;20229;-69
2021/12/10 07:39:12;;;;;;;0.77;0.77;;;3.00;99.90;;;;;;5033696;28;20207;-70
2021/12/10 07:41:40;;;;;;;0.10;0.10;;;3.00;99.90;;;;;;5034000;28;20628;-69
2021/12/10 07:44:07;;;;;;;0.10;0.10;;;3.10;99.90;;;;;;5034277;28;20183;-70
2021/12/10 07:46:34;;;;;;;0.00;0.00;;;3.20;99.90;;;;;;5033715;28;20597;-69
2021/12/10 07:49:01;;;;;;;0.20;0.20;;;3.20;99.90;;;;;;5032778;28;20637;-69
2021/12/10 07:51:29;;;;;;;0.00;0.00;;;3.30;99.90;;;;;;5033768;28;20204;-69
2021/12/10 07:53:57;;;;;;;0.00;0.00;;;3.20;99.90;;;;;;5032486;28;20174;-69
2021/12/10 07:56:25;;;;;;;1.60;1.30;;;3.30;99.90;;;;;;5033162;28;20175;-69
2021/12/10 07:58:52;;;;;;;1.97;0.93;;;3.30;99.90;;;;;;5033636;28;20743;-71
2021/12/10 08:01:22;;;;;;;0.07;0.07;;;3.40;99.90;;;;;;5033590;28;20681;-69
2021/12/10 08:03:47;;;;;;;0.00;0.00;;;3.30;99.90;;;;;;5032215;28;20191;-69
2021/12/10 08:06:15;;;;;;;0.10;0.10;;;3.30;99.90;;;;;;5033281;28;20175;-69
2021/12/10 08:08:41;;;;;;;0.93;0.93;;;3.30;99.90;;;;;;5033541;28;20221;-69
2021/12/10 08:11:06;;;;;;;1.00;0.93;;;3.30;99.90;;;;;;5033492;28;20697;-69
2021/12/10 08:13:33;;;;;;;0.00;0.00;;;3.20;99.90;;;;;;5033828;28;20186;-69
2021/12/10 08:15:58;;;;;;;0.30;0.30;;;3.20;99.90;;;;;;5033138;28;20270;-69
2021/12/10 08:18:24;;;;;;;0.77;0.77;;;3.20;99.90;;;;;;5033049;28;20335;-70
2021/12/10 08:20:50;;;;;;;0.10;0.10;;;3.20;99.90;;;;;;5033309;28;20270;-69
2021/12/10 08:23:16;;;;;;;5.03;1.27;;;3.20;99.90;;;;;;5031982;28;20186;-69
2021/12/10 08:25:42;;;;;;;0.00;0.00;;;3.20;99.90;;;;;;5031897;28;20187;-69
2021/12/10 08:28:08;;;;;;;0.20;0.20;;;3.30;99.90;;;;;;5032863;28;20562;-69
2021/12/10 08:30:37;;;;;;;0.60;0.53;;;3.30;99.90;;;;;;5033014;28;20202;-69
2021/12/10 08:33:10;;;;;;;0.00;0.00;;;3.30;99.90;;;;;;5032974;28;20177;-69
2021/12/10 08:35:36;;;;;;;0.10;0.10;;;3.30;99.90;;;;;;5033325;28;20177;-70
2021/12/10 08:38:02;;;;;;;0.00;0.00;;;3.30;99.90;;;;;;5031120;28;20730;-69
2021/12/10 08:40:35;;;;;;;1.40;1.40;;;3.30;99.90;;;;;;5026488;28;20190;-69
2021/12/10 08:43:01;;;;;;;0.07;0.07;;;3.30;99.90;;;;;;5040110;28;20167;-69
2021/12/10 08:45:28;;;;;;;0.00;0.00;;;3.30;99.90;;;;;;5032361;28;20258;-69
2021/12/10 08:47:54;;;;;;;0.00;0.00;;;3.30;99.90;;;;;;5024940;28;20180;-70
2021/12/10 08:50:23;;;;;;;1.10;1.10;;;3.30;99.90;;;;;;5030171;28;20265;-69
2021/12/10 08:52:57;;;;;;;0.67;0.53;;;3.30;99.90;;;;;;5046708;28;20241;-69
2021/12/10 08:55:24;;;;;;;0.77;0.77;;;3.30;99.90;;;;;;5024628;28;20176;-69
2021/12/10 08:57:49;;;;;;;0.27;0.27;;;3.30;99.90;;;;;;5029688;28;20213;-69
2021/12/10 09:00:17;;;;;;;0.13;0.13;;;3.30;99.90;;;;;;5027401;28;20684;-69
2021/12/10 09:02:42;;;;;;;0.00;0.00;;;3.40;99.90;;;;;;5036270;28;20260;-69
2021/12/10 09:05:10;;;;;;;0.00;0.00;;;3.30;99.90;;;;;;5029970;28;20267;-69
2021/12/10 09:07:38;;;;;;;0.10;0.10;;;3.40;99.90;;;;;;5032567;28;20175;-68
2021/12/10 09:10:07;;;;;;;0.00;0.00;;;3.30;99.90;;;;;;5038839;28;20686;-69
2021/12/10 09:12:34;;;;;;;0.00;0.00;;;3.30;99.90;;;;;;5026250;28;20203;-69
2021/12/10 09:15:01;;;;;;;3.00;0.93;;;3.30;99.90;;;;;;5028890;28;20199;-69
2021/12/10 09:17:30;;;;;;;0.10;0.10;;;3.30;99.90;;;;;;5032630;28;20198;-69
2021/12/10 09:19:59;;;;;;;0.00;0.00;;;3.40;99.90;;;;;;5027639;28;20693;-70
2021/12/10 09:22:25;;;;;;;0.00;0.00;;;3.40;99.90;;;;;;5033452;28;20168;-69
2021/12/10 09:24:54;;;;;;;0.13;0.13;;;3.40;99.90;;;;;;5031117;28;20164;-70
2021/12/10 09:27:20;;;;;;;0.10;0.10;;;3.40;99.90;;;;;;5032139;28;20203;-68
2021/12/10 09:29:48;;;;;;;1.23;1.13;;;3.40;99.90;;;;;;5020451;28;20203;-69
2021/12/10 09:32:16;;;;;;;0.00;0.00;;;3.50;99.90;;;;;;5038168;28;20191;-69
2021/12/10 09:34:42;;;;;;;0.30;0.30;;;3.50;99.90;;;;;;5041211;28;20184;-69
2021/12/10 09:37:09;;;;;;;2.07;0.90;;;3.50;99.90;;;;;;5026755;28;20942;-69
2021/12/10 09:39:36;;;;;;;0.70;0.70;;;3.50;99.90;;;;;;5016864;28;20219;-69
2021/12/10 09:42:03;;;;;;;1.13;1.07;;;3.50;99.90;;;;;;5040075;28;20175;-69
2021/12/10 09:44:29;;;;;;;0.30;0.30;;;3.50;99.90;;;;;;5040821;28;20588;-69
2021/12/10 09:46:55;;;;;;;1.97;1.70;;;3.60;99.90;;;;;;5026989;28;20183;-69
2021/12/10 09:49:24;;;;;;;1.43;0.93;;;3.60;99.90;;;;;;5017128;28;20612;-69
2021/12/10 09:51:54;;;;;;;0.07;0.07;;;3.60;99.90;;;;;;5038225;28;20215;-70
2021/12/10 09:54:23;;;;;;;0.30;0.30;;;3.60;99.90;;;;;;5019000;28;20173;-69
2021/12/10 09:57:04;;;;;;;0.80;0.80;;;3.60;99.90;;;;;;5030689;28;20638;-70
2021/12/10 09:59:31;;;;;;;0.10;0.10;;;3.70;99.90;;;;;;5035832;28;20671;-69
2021/12/10 10:01:59;;;;;;;0.00;0.00;;;3.70;99.90;;;;;;5040769;28;20181;-69
2021/12/10 10:04:27;;;;;;;0.30;0.30;;;3.70;99.90;;;;;;5036026;28;20190;-69
2021/12/10 10:07:06;;;;;;;0.97;0.97;;;3.70;99.90;;;;;;5031111;28;20212;-69
2021/12/10 10:09:32;;;;;;;0.40;0.40;;;3.60;99.90;;;;;;5033683;28;20622;-69
2021/12/10 10:12:06;;;;;;;0.10;0.10;;;3.60;99.90;;;;;;5039147;28;20242;-69
2021/12/10 10:14:33;;;;;;;4.90;0.87;;;3.60;99.90;;;;;;5031610;28;20849;-69
2021/12/10 10:16:59;;;;;;;1.33;1.33;;;3.60;99.90;;;;;;5032622;28;20492;-69
2021/12/10 10:19:25;;;;;;;0.47;0.47;;;3.60;99.90;;;;;;5023697;28;20281;-69
2021/12/10 10:21:54;;;;;;;3.80;1.40;;;3.60;99.90;;;;;;5028300;28;20237;-69
2021/12/10 10:24:25;;;;;;;0.37;0.37;;;3.60;99.90;;;;;;5021042;28;20258;-70
2021/12/10 10:27:02;;;;;;;0.10;0.10;;;3.70;99.90;;;;;;5039338;28;20175;-69
2021/12/10 10:29:35;;;;;;;0.20;0.20;;;3.70;99.90;;;;;;5038288;28;20202;-68
2021/12/10 10:32:09;;;;;;;0.10;0.10;;;3.70;99.90;;;;;;5037697;28;20204;-68
2021/12/10 10:34:42;;;;;;;0.20;0.20;;;3.70;99.90;;;;;;5042313;28;20182;-68
2021/12/10 10:37:09;;;;;;;0.13;0.13;;;3.80;99.90;;;;;;5019716;28;20643;-68
2021/12/10 10:39:36;;;;;;;0.00;0.00;;;3.80;99.90;;;;;;5034267;28;20223;-68
2021/12/10 10:42:09;;;;;;;0.10;0.10;;;3.90;99.90;;;;;;5027364;28;20187;-69
2021/12/10 10:44:35;;;;;;;0.10;0.10;;;3.90;99.90;;;;;;5045113;28;20179;-68
2021/12/10 10:47:01;;;;;;;0.20;0.20;;;3.90;99.90;;;;;;5026846;28;20191;-69
2021/12/10 10:49:54;;;;;;;4.03;2.43;;;3.90;99.90;;;;;;5021700;28;20205;-68
2021/12/10 10:52:28;;;;;;;0.10;0.10;;;4.00;99.90;;;;;;5030668;28;20187;-68
2021/12/10 10:55:00;;;;;;;0.20;0.20;;;4.00;99.90;;;;;;5022036;28;20170;-68
2021/12/10 10:57:30;;;;;;;0.20;0.20;;;4.00;99.90;;;;;;5024943;28;20205;-68
2021/12/10 11:00:13;;;;;;;0.30;0.30;;;4.10;99.90;;;;;;5042271;28;20888;-68
2021/12/10 11:02:49;;;;;;;0.00;0.00;;;4.10;99.90;;;;;;5033210;28;20200;-68
2021/12/10 11:05:15;;;;;;;0.43;0.30;;;4.10;99.90;;;;;;5032643;28;20184;-68
2021/12/10 11:07:51;;;;;;;1.07;1.07;;;4.20;99.90;;;;;;5034777;28;20171;-68
2021/12/10 11:10:28;;;;;;;1.70;1.07;;;4.20;99.90;;;;;;5039430;28;20691;-68
2021/12/10 11:13:21;;;;;;;0.80;0.80;;;4.10;99.90;;;;;;5028750;28;20351;-68
2021/12/10 11:16:08;;;;;;;0.33;0.33;;;4.20;99.90;;;;;;5035993;28;20169;-68
2021/12/10 11:18:56;;;;;;;0.60;0.60;;;4.20;99.90;;;;;;5038621;28;20195;-68
2021/12/10 11:21:47;;;;;;;1.60;1.50;;;4.20;99.90;;;;;;5018350;28;20174;-68
2021/12/10 11:24:34;;;;;;;0.10;0.10;;;4.20;99.90;;;;;;5034512;28;20208;-68
2021/12/10 11:27:08;;;;;;;0.30;0.30;;;4.20;99.90;;;;;;5047461;28;20499;-68
2021/12/10 11:29:44;;;;;;;0.20;0.20;;;4.20;99.90;;;;;;5034409;28;20199;-69
2021/12/10 11:32:31;;;;;;;1.43;1.30;;;4.20;99.90;;;;;;5032341;28;20208;-68
2021/12/10 11:35:14;;;;;;;0.20;0.20;;;4.20;99.90;;;;;;5045457;28;20248;-68
2021/12/10 11:38:07;;;;;;;0.30;0.30;;;4.20;99.90;;;;;;5024860;28;20560;-68
2021/12/10 11:40:35;;;;;;;0.20;0.20;;;4.20;99.90;;;;;;5037956;28;20192;-70
2021/12/10 11:49:00;;;;;;;0.40;0.40;;;4.20;99.90;;;;;;5024552;28;20239;-68
2021/12/10 11:51:41;;;;;;;0.60;0.60;;;4.20;99.90;;;;;;5036707;28;20215;-68
2021/12/10 11:54:32;;;;;;;0.10;0.10;;;4.20;99.90;;;;;;5041051;28;20594;-68
2021/12/10 11:57:11;;;;;;;0.10;0.10;;;4.20;99.90;;;;;;5018900;28;20193;-69
2021/12/10 11:59:55;;;;;;;0.57;0.57;;;4.10;99.90;;;;;;5043019;28;20197;-68
2021/12/10 12:02:53;;;;;;;3.20;1.13;;;4.20;99.90;;;;;;5023317;28;20581;-69
2021/12/10 12:05:28;;;;;;;2.57;0.73;;;4.20;99.90;;;;;;5006574;28;20194;-68
2021/12/10 12:08:00;;;;;;;0.10;0.10;;;4.20;99.90;;;;;;5032167;28;20184;-68
2021/12/10 12:10:28;;;;;;;0.73;0.73;;;4.20;99.90;;;;;;5036817;28;20209;-68
2021/12/10 12:13:09;;;;;;;3.40;2.33;;;4.20;99.90;;;;;;5029958;28;20176;-69
2021/12/10 12:15:41;;;;;;;1.73;1.63;;;4.30;99.90;;;;;;5033995;28;20176;-68
2021/12/10 12:18:22;;;;;;;0.07;0.07;;;4.20;99.90;;;;;;5040582;28;20178;-69
2021/12/10 12:21:00;;;;;;;0.20;0.20;;;4.30;99.90;;;;;;5027312;28;20211;-69
2021/12/10 12:26:22;;;;;;;0.10;0.10;;;4.30;99.90;;;;;;5038167;28;20603;-68
2021/12/10 12:28:49;;;;;;;5.63;1.10;;;4.30;99.90;;;;;;5035618;28;20258;-68
2021/12/10 12:31:28;;;;;;;0.10;0.10;;;4.30;99.90;;;;;;5038931;28;20208;-68
2021/12/10 12:34:05;;;;;;;0.10;0.10;;;4.30;99.90;;;;;;5038929;28;20593;-68
2021/12/10 12:36:37;;;;;;;0.00;0.00;;;4.30;99.90;;;;;;5035032;28;20177;-71
2021/12/10 12:39:26;;;;;;;3.83;0.57;;;4.30;99.90;;;;;;5020532;28;20202;-68
2021/12/10 12:41:52;;;;;;;0.00;0.00;;;4.30;99.90;;;;;;5039475;28;20608;-68
2021/12/10 12:44:24;;;;;;;0.10;0.10;;;4.30;99.90;;;;;;5045356;28;20206;-68
2021/12/10 12:47:12;;;;;;;0.80;0.80;;;4.20;99.90;;;;;;5032173;28;20183;-68
2021/12/10 12:49:37;;;;;;;0.10;0.10;;;4.20;99.90;;;;;;5034340;28;20211;-68
2021/12/10 12:52:10;;;;;;;0.63;0.63;;;4.20;99.90;;;;;;5039123;28;20203;-69
2021/12/10 12:54:42;;;;;;;0.20;0.20;;;4.10;99.90;;;;;;5035258;28;20188;-68
2021/12/10 12:57:10;;;;;;;1.03;0.93;;;4.10;99.90;;;;;;5019033;28;20236;-68
2021/12/10 12:59:36;;;;;;;0.10;0.10;;;4.00;99.90;;;;;;5039655;28;20287;-68
2021/12/10 13:02:08;;;;;;;0.60;0.60;;;4.00;99.90;;;;;;5043514;28;20620;-68
2021/12/10 13:04:44;;;;;;;0.20;0.20;;;3.90;99.90;;;;;;5035966;28;20270;-69
2021/12/10 13:07:17;;;;;;;0.67;0.57;;;3.80;99.90;;;;;;5021212;28;20173;-68
2021/12/10 13:09:53;;;;;;;2.10;0.67;;;3.80;99.90;;;;;;5040971;28;20257;-68
2021/12/10 13:12:46;;;;;;;0.10;0.10;;;3.80;99.90;;;;;;5022803;28;20266;-68
2021/12/10 13:15:17;;;;;;;0.20;0.20;;;3.70;99.90;;;;;;5025532;28;20231;-68
2021/12/10 13:17:50;;;;;;;0.13;0.13;;;3.60;99.90;;;;;;5029629;28;20226;-68
2021/12/10 13:20:21;;;;;;;0.13;0.13;;;3.50;99.90;;;;;;5021153;28;20197;-68
2021/12/10 13:22:51;;;;;;;0.10;0.10;;;3.50;99.90;;;;;;5031999;28;20194;-68
2021/12/10 13:25:24;;;;;;;0.63;0.60;;;3.50;99.90;;;;;;5027411;28;20179;-68
2021/12/10 13:27:50;;;;;;;1.47;1.40;;;3.50;99.90;;;;;;5035926;28;20173;-68
2021/12/10 13:30:27;;;;;;;0.10;0.10;;;3.50;99.90;;;;;;5040258;28;20264;-68